This is the latest recevied weather packets stored in our database for station/object WX1NWA. If no packets are shown the sender has not sent any weather packets the latest 1 day(s).
| Time | Temp. | Humidity | Pressure | Rain* | Wind** | Luminosity | Snow |
|---|---|---|---|---|---|---|---|
| 1836274696 | 20.56° C | 83% | 1021.7 hPa | 0 mm | 0 m/s | 0 W/m² | - |
| 1836274549 | 21.11° C | 83% | 1021.7 hPa | 0 mm | 0 m/s | 0 W/m² | - |
| 1836274394 | 20.56° C | 83% | 1021.7 hPa | 0 mm | 0.89 m/s, 268° | 0 W/m² | - |
| 1836274247 | 21.11° C | 83% | 1021.7 hPa | 0 mm | 0.45 m/s, 255° | 0 W/m² | - |
| 1836274093 | 20.56° C | 81% | 1022 hPa | 0 mm | 0.45 m/s, 238° | 0 W/m² | - |
| 1778037102 | 7.22° C | 99% | 1012.5 hPa | 0 mm | 0.45 m/s, 297° | 0 W/m² | - |
| 1778036801 | 7.22° C | 99% | 1012.4 hPa | 0 mm | 0.89 m/s, 306° | 0 W/m² | - |
| 1778036498 | 7.22° C | 99% | 1012.2 hPa | 0 mm | 0.45 m/s, 300° | 0 W/m² | - |
| 1778036195 | 7.22° C | 99% | 1012.2 hPa | 0 mm | 0.89 m/s, 338° | 0 W/m² | - |
| 1778035891 | 7.22° C | 99% | 1012.1 hPa | 0 mm | 0.89 m/s, 285° | 0 W/m² | - |
| 1778035589 | 7.22° C | 99% | 1012.2 hPa | 0 mm | 0.89 m/s, 274° | 0 W/m² | - |
| 1778035284 | 7.22° C | 99% | 1012.2 hPa | 0 mm | 0.89 m/s, 323° | 0 W/m² | - |
| 1778034981 | 7.22° C | 99% | 1012.1 hPa | 0 mm | 0.89 m/s, 341° | 0 W/m² | - |
| 1778034678 | 7.22° C | 99% | 1011.9 hPa | 0 mm | 0.45 m/s, 289° | 0 W/m² | - |
| 1778034375 | 7.22° C | 99% | 1012 hPa | 0 mm | 0.45 m/s, 343° | 0 W/m² | - |
| 1778034073 | 7.22° C | 99% | 1011.7 hPa | 0 mm | 0.45 m/s, 300° | 0 W/m² | - |
| 1778033771 | 7.78° C | 99% | 1012.1 hPa | 0 mm | 0.89 m/s, 291° | 0 W/m² | - |
| 1778033468 | 7.78° C | 99% | 1012.1 hPa | 0 mm | 0.45 m/s, 288° | 0 W/m² | - |
| 1778033165 | 7.78° C | 99% | 1012.1 hPa | 0 mm | 0.45 m/s, 283° | 0 W/m² | - |
| 1778032862 | 7.78° C | 99% | 1011.8 hPa | 0 mm | 0.45 m/s, 309° | 0 W/m² | - |
| 1778032560 | 8.33° C | 99% | 1011.7 hPa | 0 mm | 1.34 m/s, 313° | 0 W/m² | - |
| 1778032256 | 8.33° C | 99% | 1011.7 hPa | 0 mm | 0 m/s | 0 W/m² | - |
| 1778031954 | 8.33° C | 99% | 1010.8 hPa | 0 mm | 0.45 m/s, 299° | 0 W/m² | - |
| 1778031649 | 8.33° C | 99% | 1011.1 hPa | 0 mm | 0.89 m/s, 295° | 0 W/m² | - |
| 1778031348 | 8.33° C | 99% | 1011.1 hPa | 0 mm | 0.45 m/s, 311° | 0 W/m² | - |
* Rain latest hour (hover to see other rain measurements)
** Current wind speed in m/s (hover to see current wind gust speed)